Time;durP1;ratioP1;P1;durP2;ratioP2;P2;SDS_P1;SDS_P2;PMS_P1;PMS_P2;Temp;Humidity;BMP_temperature;BMP_pressure;BME280_temperature;BME280_humidity;BME280_pressure;Samples;Min_cycle;Max_cycle;Signal;HPM_P1;HPM_P2
2023/02/01 00:01:47;;;;;;;0.70;0.60;;;;;;;4.78;45.19;92789.72;4988952;28;20051;-78
2023/02/01 00:04:13;;;;;;;0.77;0.77;;;;;;;4.85;44.88;92793.94;4959200;28;20051;-78
2023/02/01 00:06:38;;;;;;;0.52;0.50;;;;;;;4.95;44.56;92781.88;4959435;29;20090;-78
2023/02/01 00:09:04;;;;;;;0.68;0.68;;;;;;;4.97;44.51;92776.41;4959035;29;20126;-78
2023/02/01 00:11:30;;;;;;;0.50;0.50;;;;;;;4.99;44.35;92774.38;4956438;29;20151;-78
2023/02/01 00:13:57;;;;;;;0.50;0.50;;;;;;;4.99;44.35;92774.38;4973045;28;20437;-79
2023/02/01 00:16:28;;;;;;;0.73;0.50;;;;;;;5.04;44.11;92777.00;4978900;28;20134;-78
2023/02/01 00:18:59;;;;;;;0.50;0.50;;;;;;;5.32;42.72;92783.00;4979428;28;20042;-78
2023/02/01 00:21:26;;;;;;;0.52;0.52;;;;;;;5.34;42.58;92786.13;4959237;28;20074;-78
2023/02/01 00:23:51;;;;;;;1.00;0.82;;;;;;;5.36;42.60;92778.88;4956859;28;20071;-79
2023/02/01 00:26:19;;;;;;;1.25;0.52;;;;;;;5.39;42.42;92783.56;4977198;28;20389;-78
2023/02/01 00:28:45;;;;;;;0.70;0.55;;;;;;;5.50;41.98;92774.84;4963907;28;20134;-79
2023/02/01 00:31:12;;;;;;;0.98;0.82;;;;;;;5.56;41.59;92773.84;4953311;28;20051;-78
2023/02/01 00:33:37;;;;;;;1.38;0.70;;;;;;;5.51;41.58;92775.63;4962965;28;20043;-78
2023/02/01 00:36:06;;;;;;;0.50;0.50;;;;;;;5.55;41.30;92772.28;4957505;28;20070;-78
2023/02/01 00:38:33;;;;;;;0.88;0.60;;;;;;;5.58;41.18;92774.41;4979116;28;20050;-79
2023/02/01 00:41:04;;;;;;;3.97;0.90;;;;;;;5.60;40.80;92777.50;4979245;28;20058;-78
2023/02/01 00:43:34;;;;;;;0.60;0.60;;;;;;;5.67;40.49;92771.31;4983385;28;20117;-78
2023/02/01 00:46:00;;;;;;;2.70;0.75;;;;;;;5.70;40.19;92768.25;4983512;28;20035;-78
2023/02/01 00:48:26;;;;;;;0.70;0.70;;;;;;;5.64;40.58;92763.00;4993956;28;20057;-78
2023/02/01 00:50:52;;;;;;;0.43;0.43;;;;;;;5.67;40.48;92773.91;4974328;28;20067;-78
2023/02/01 00:53:17;;;;;;;0.57;0.55;;;;;;;5.67;40.31;92779.13;4976926;28;20042;-78
2023/02/01 00:55:47;;;;;;;0.63;0.63;;;;;;;5.70;40.32;92768.25;4975244;28;20516;-78
2023/02/01 00:58:12;;;;;;;0.73;0.55;;;;;;;5.66;40.57;92769.78;4976720;28;20050;-78
2023/02/01 01:00:38;;;;;;;0.85;0.52;;;;;;;5.67;40.38;92773.91;4976402;28;20038;-78
2023/02/01 01:03:17;;;;;;;0.70;0.70;;;;;;;5.62;40.24;92767.66;4976830;28;20051;-78
2023/02/01 01:05:48;;;;;;;0.88;0.70;;;;;;;5.60;40.03;92768.94;4986723;28;20053;-78
2023/02/01 01:08:15;;;;;;;0.50;0.50;;;;;;;5.68;39.63;92767.72;4991888;28;20120;-78
2023/02/01 01:10:41;;;;;;;1.30;0.80;;;;;;;5.75;39.21;92770.88;4976948;28;20035;-78
2023/02/01 01:13:08;;;;;;;2.20;0.68;;;;;;;5.80;39.05;92771.69;4976205;28;20433;-78
2023/02/01 01:15:38;;;;;;;0.63;0.63;;;;;;;5.81;39.21;92769.88;4992538;28;20047;-78
2023/02/01 01:18:04;;;;;;;2.03;0.60;;;;;;;5.89;38.99;92761.59;4995406;28;20047;-78
2023/02/01 01:20:30;;;;;;;0.52;0.52;;;;;;;5.95;38.63;92773.63;4943597;28;20031;-79
2023/02/01 01:22:55;;;;;;;0.70;0.70;;;;;;;6.03;38.25;92767.19;4975876;28;20042;-78
2023/02/01 01:25:21;;;;;;;0.65;0.60;;;;;;;6.01;38.37;92769.25;4974197;28;20042;-79
2023/02/01 01:27:47;;;;;;;0.63;0.63;;;;;;;6.10;37.91;92769.56;4975727;28;20129;-78
2023/02/01 01:30:13;;;;;;;0.57;0.57;;;;;;;6.19;37.23;92765.44;4976942;28;20512;-78
2023/02/01 01:32:39;;;;;;;0.55;0.55;;;;;;;6.22;37.14;92759.75;4981565;28;20057;-78
2023/02/01 01:35:05;;;;;;;0.70;0.68;;;;;;;6.18;37.29;92759.47;4995768;28;20079;-78
2023/02/01 01:37:32;;;;;;;0.50;0.50;;;;;;;6.22;37.33;92764.97;4975769;28;20070;-78
2023/02/01 01:39:57;;;;;;;0.60;0.60;;;;;;;6.13;37.17;92756.09;4977083;28;20364;-78
2023/02/01 01:42:23;;;;;;;0.65;0.65;;;;;;;6.26;36.56;92766.03;4959034;28;20408;-78
2023/02/01 01:45:03;;;;;;;1.60;0.90;;;;;;;6.33;36.84;92771.78;4991119;28;20085;-78
2023/02/01 01:48:10;;;;;;;2.60;1.50;;;;;;;6.41;36.29;92758.28;4975661;28;20046;-78
2023/02/01 01:50:43;;;;;;;3.30;1.60;;;;;;;6.34;36.42;92759.56;4962446;28;20043;-78
2023/02/01 01:53:14;;;;;;;3.83;1.90;;;;;;;6.13;36.92;92762.06;4976106;28;20046;-78
2023/02/01 01:55:43;;;;;;;4.40;2.22;;;;;;;6.01;37.17;92748.44;4978161;28;20173;-78
2023/02/01 01:58:13;;;;;;;2.53;1.20;;;;;;;5.90;37.52;92752.81;4974817;28;20038;-78
2023/02/01 02:00:39;;;;;;;1.63;1.00;;;;;;;5.80;37.56;92753.50;4974518;28;20480;-78
2023/02/01 02:03:22;;;;;;;2.67;1.42;;;;;;;5.64;38.00;92750.00;4974417;28;20055;-78
2023/02/01 02:05:53;;;;;;;4.13;2.00;;;;;;;5.66;37.58;92743.81;4975446;28;20046;-78
2023/02/01 02:08:20;;;;;;;1.73;0.97;;;;;;;5.62;37.75;92740.91;4974178;28;20105;-78
2023/02/01 02:11:00;;;;;;;0.80;0.60;;;;;;;5.67;37.73;92747.94;4975550;28;20697;-78
2023/02/01 02:13:38;;;;;;;0.88;0.60;;;;;;;5.70;37.57;92742.28;4981688;28;20062;-78
2023/02/01 02:16:07;;;;;;;0.60;0.60;;;;;;;5.71;37.26;92741.22;4975902;28;20460;-78
2023/02/01 02:18:52;;;;;;;0.55;0.55;;;;;;;5.83;36.87;92734.03;4973805;28;20054;-78
2023/02/01 02:21:36;;;;;;;0.63;0.50;;;;;;;5.92;36.73;92739.53;4974390;28;20070;-78
2023/02/01 02:24:23;;;;;;;0.93;0.70;;;;;;;6.14;35.80;92742.03;4974852;28;20292;-78
2023/02/01 02:27:02;;;;;;;0.60;0.60;;;;;;;6.43;35.61;92740.63;4975164;28;20073;-78
2023/02/01 02:29:58;;;;;;;3.95;0.63;;;;;;;6.33;35.61;92743.19;4973999;28;20054;-78
2023/02/01 02:32:54;;;;;;;0.60;0.50;;;;;;;6.21;36.12;92743.41;4989570;28;20078;-78
2023/02/01 02:35:42;;;;;;;1.17;0.70;;;;;;;6.01;36.50;92738.88;4973884;28;20049;-78
2023/02/01 02:38:27;;;;;;;0.88;0.70;;;;;;;6.12;36.22;92738.91;4971264;28;20043;-78
2023/02/01 02:47:23;;;;;;;0.60;0.60;;;;;;;6.09;35.83;92742.03;4957049;28;20063;-78
2023/02/01 03:04:09;;;;;;;0.55;0.55;;;;;;;5.90;36.01;92718.22;4962416;28;20046;-78
2023/02/01 03:06:38;;;;;;;0.70;0.70;;;;;;;5.85;36.18;92713.78;4988407;28;20157;-78
2023/02/01 03:09:13;;;;;;;0.88;0.80;;;;;;;5.81;36.22;92707.53;4972220;28;20042;-78
2023/02/01 03:14:28;;;;;;;0.50;0.50;;;;;;;5.79;36.35;92714.78;4969176;28;20047;-78
2023/02/01 03:17:05;;;;;;;0.75;0.68;;;;;;;5.77;36.71;92715.03;4988444;28;20058;-78
2023/02/01 03:19:48;;;;;;;0.50;0.50;;;;;;;5.66;36.59;92716.00;4990075;28;20046;-78
2023/02/01 03:22:18;;;;;;;0.57;0.57;;;;;;;5.66;36.57;92710.03;4974054;28;20102;-78
2023/02/01 03:24:58;;;;;;;2.92;0.60;;;;;;;5.67;36.56;92717.56;4969459;28;20047;-78
2023/02/01 03:27:40;;;;;;;0.47;0.47;;;;;;;5.60;36.45;92709.19;4975151;28;20229;-78
2023/02/01 03:30:09;;;;;;;0.82;0.50;;;;;;;5.70;36.02;92709.28;4977920;28;20102;-78
2023/02/01 03:35:30;;;;;;;0.70;0.70;;;;;;;5.86;35.88;92717.94;4979170;28;20047;-78
2023/02/01 03:38:22;;;;;;;0.85;0.50;;;;;;;5.79;35.88;92707.00;4973036;28;20039;-78
2023/02/01 03:40:55;;;;;;;0.50;0.50;;;;;;;5.78;35.49;92703.59;4972568;28;20408;-78
2023/02/01 03:43:26;;;;;;;0.60;0.60;;;;;;;5.85;35.72;92705.97;4974563;28;20047;-78
2023/02/01 03:45:57;;;;;;;1.95;0.50;;;;;;;5.81;35.62;92704.94;4986365;28;20041;-78
2023/02/01 03:48:26;;;;;;;0.60;0.60;;;;;;;5.79;36.02;92709.59;4972612;28;20039;-78
2023/02/01 03:50:56;;;;;;;2.88;0.70;;;;;;;5.74;35.80;92712.94;4988617;28;20078;-78
2023/02/01 03:53:25;;;;;;;0.50;0.50;;;;;;;5.72;35.88;92703.81;4945437;28;20046;-78
2023/02/01 03:55:52;;;;;;;0.50;0.50;;;;;;;5.73;35.93;92700.22;4991769;28;20050;-78
2023/02/01 03:58:22;;;;;;;1.00;0.57;;;;;;;5.62;36.19;92705.31;4992560;28;20046;-78
2023/02/01 04:00:56;;;;;;;0.88;0.70;;;;;;;5.47;36.80;92707.84;4963943;28;20058;-78
2023/02/01 04:03:24;;;;;;;0.85;0.73;;;;;;;5.29;37.65;92708.19;4973012;28;20043;-78
2023/02/01 04:05:51;;;;;;;0.98;0.50;;;;;;;5.15;37.68;92708.59;4977283;28;20042;-78
2023/02/01 04:08:17;;;;;;;0.75;0.70;;;;;;;5.20;37.32;92716.44;4972521;28;20492;-78
2023/02/01 04:10:43;;;;;;;2.40;1.13;;;;;;;5.16;37.29;92707.59;4974071;28;20047;-78
2023/02/01 04:13:10;;;;;;;1.05;0.90;;;;;;;5.12;37.25;92710.91;4972638;28;20452;-78
2023/02/01 04:15:35;;;;;;;0.77;0.70;;;;;;;5.04;37.79;92709.53;4955896;28;20616;-78
2023/02/01 04:18:01;;;;;;;0.85;0.73;;;;;;;4.91;38.68;92718.53;4972851;28;20058;-78
2023/02/01 04:20:27;;;;;;;0.43;0.43;;;;;;;4.80;38.81;92722.03;4975791;28;20045;-78
2023/02/01 04:22:53;;;;;;;2.35;1.20;;;;;;;4.81;38.21;92723.59;4976284;28;20047;-78
2023/02/01 04:25:18;;;;;;;0.85;0.70;;;;;;;4.74;38.61;92723.78;4977923;28;20089;-78
2023/02/01 04:27:45;;;;;;;1.33;0.70;;;;;;;4.65;38.96;92722.66;4977271;28;20555;-78
2023/02/01 04:30:12;;;;;;;0.82;0.63;;;;;;;4.58;38.79;92722.06;4977743;28;20071;-78
2023/02/01 04:32:38;;;;;;;1.35;0.60;;;;;;;4.48;38.91;92720.16;4977437;28;20054;-78
2023/02/01 04:35:05;;;;;;;1.70;0.50;;;;;;;4.52;38.79;92728.22;4982186;28;20050;-78
2023/02/01 04:37:31;;;;;;;0.65;0.60;;;;;;;4.54;38.54;92731.34;4983844;28;20046;-77
2023/02/01 04:39:56;;;;;;;0.60;0.60;;;;;;;4.60;38.22;92725.22;4976357;28;20054;-78
2023/02/01 04:42:22;;;;;;;0.63;0.60;;;;;;;4.62;38.20;92727.56;4978147;28;20518;-78
2023/02/01 04:44:47;;;;;;;0.57;0.57;;;;;;;4.77;38.50;92723.31;4984471;28;20057;-78
2023/02/01 04:47:15;;;;;;;1.00;0.60;;;;;;;4.74;38.16;92718.59;4990056;28;20674;-78
2023/02/01 04:49:41;;;;;;;0.60;0.60;;;;;;;4.67;38.34;92720.59;4975757;28;20509;-78
2023/02/01 04:52:07;;;;;;;0.73;0.73;;;;;;;4.56;38.49;92721.53;4988623;28;20089;-78
2023/02/01 04:54:32;;;;;;;1.17;0.70;;;;;;;4.42;39.22;92720.34;4977260;28;20189;-78
2023/02/01 04:56:58;;;;;;;1.15;0.70;;;;;;;4.30;39.95;92718.66;4996433;28;20054;-78
2023/02/01 04:59:24;;;;;;;1.52;1.00;;;;;;;4.16;40.36;92717.44;4978914;28;20064;-78
2023/02/01 05:01:49;;;;;;;0.95;0.85;;;;;;;4.04;40.62;92716.78;4983488;28;20552;-78
2023/02/01 05:04:15;;;;;;;0.85;0.70;;;;;;;3.97;40.93;92716.94;4975648;28;20485;-78
2023/02/01 05:06:40;;;;;;;0.57;0.57;;;;;;;3.87;41.20;92722.78;4965969;28;20061;-78
2023/02/01 05:09:06;;;;;;;2.47;1.30;;;;;;;3.78;41.56;92715.66;4974974;28;20039;-78
2023/02/01 05:14:16;;;;;;;0.77;0.73;;;;;;;3.63;41.64;92721.41;4976312;28;20039;-78
2023/02/01 05:16:41;;;;;;;0.63;0.60;;;;;;;3.60;41.64;92727.03;4975912;28;20050;-78
2023/02/01 05:19:07;;;;;;;0.93;0.70;;;;;;;3.54;42.30;92718.44;4974790;28;20047;-78
2023/02/01 05:21:33;;;;;;;1.63;0.85;;;;;;;3.49;42.42;92724.31;4974996;28;20513;-78
2023/02/01 05:24:12;;;;;;;3.15;1.02;;;;;;;3.43;42.14;92717.50;4957402;28;20042;-78
2023/02/01 05:26:41;;;;;;;0.70;0.70;;;;;;;3.35;42.56;92715.28;4982163;28;20146;-78
2023/02/01 05:29:08;;;;;;;1.48;0.80;;;;;;;3.29;42.74;92711.06;4976874;28;20090;-78
2023/02/01 05:31:33;;;;;;;1.60;0.82;;;;;;;3.28;42.59;92710.28;4974530;28;20038;-78
2023/02/01 05:33:59;;;;;;;0.70;0.60;;;;;;;3.26;42.31;92714.13;4975142;28;20085;-78
2023/02/01 05:36:25;;;;;;;0.75;0.70;;;;;;;3.31;42.19;92711.59;4974645;28;20481;-78
2023/02/01 05:38:51;;;;;;;1.60;0.90;;;;;;;3.28;42.63;92710.28;4975630;28;20058;-78
2023/02/01 05:41:16;;;;;;;1.42;0.85;;;;;;;3.24;42.79;92704.03;4985965;28;20125;-78
2023/02/01 05:43:42;;;;;;;1.45;1.05;;;;;;;3.22;42.72;92707.84;4975434;28;20053;-78
2023/02/01 05:46:10;;;;;;;1.60;0.90;;;;;;;3.15;43.13;92712.38;4975785;28;20051;-78
2023/02/01 05:48:36;;;;;;;1.38;0.80;;;;;;;3.09;43.04;92717.50;4975457;28;20509;-78
2023/02/01 05:51:01;;;;;;;0.85;0.73;;;;;;;3.08;42.66;92713.31;4964770;28;20062;-78
2023/02/01 05:53:27;;;;;;;1.05;0.80;;;;;;;3.06;42.46;92717.97;4973858;28;20436;-78
2023/02/01 05:55:52;;;;;;;1.80;1.00;;;;;;;3.06;42.65;92712.00;4976264;28;20178;-78
2023/02/01 05:58:18;;;;;;;0.98;0.77;;;;;;;3.01;43.03;92712.69;4956651;28;20493;-79
2023/02/01 06:00:43;;;;;;;1.35;0.82;;;;;;;2.94;43.78;92714.66;4974792;28;20043;-78
2023/02/01 06:03:09;;;;;;;0.73;0.70;;;;;;;2.88;43.63;92710.41;4976609;28;20034;-79
2023/02/01 06:05:35;;;;;;;1.60;0.85;;;;;;;2.84;43.73;92704.16;4986368;28;20051;-78
2023/02/01 06:08:00;;;;;;;1.45;0.90;;;;;;;2.81;43.80;92714.94;4974193;28;20046;-80
2023/02/01 06:10:27;;;;;;;1.75;1.05;;;;;;;2.79;43.72;92704.03;4976747;28;20094;-81
2023/02/01 06:12:52;;;;;;;1.17;0.90;;;;;;;2.78;43.12;92707.66;4970395;28;20083;-81
2023/02/01 06:15:38;;;;;;;0.90;0.80;;;;;;;2.79;42.93;92704.03;4965484;28;20035;-80
2023/02/01 06:18:04;;;;;;;0.70;0.70;;;;;;;2.88;41.78;92710.41;4992127;28;20125;-79
2023/02/01 06:20:29;;;;;;;1.33;0.73;;;;;;;2.94;41.83;92711.28;4973385;28;20073;-78
2023/02/01 06:22:55;;;;;;;2.33;1.27;;;;;;;2.95;42.14;92710.25;4973925;28;20051;-78
2023/02/01 06:25:21;;;;;;;3.72;2.05;;;;;;;2.91;42.25;92715.13;4959904;28;20423;-80
2023/02/01 06:27:47;;;;;;;2.17;1.30;;;;;;;2.86;42.66;92707.25;4974915;28;20054;-79
2023/02/01 06:30:16;;;;;;;1.10;1.00;;;;;;;2.86;42.27;92712.44;4972048;28;20102;-78
2023/02/01 06:32:43;;;;;;;1.65;1.08;;;;;;;2.81;42.24;92707.97;4969020;28;20151;-78
2023/02/01 06:35:15;;;;;;;1.60;1.10;;;;;;;2.83;41.75;92724.03;4973787;28;20126;-78
2023/02/01 06:37:41;;;;;;;2.60;1.45;;;;;;;2.84;41.90;92720.44;4967302;28;20051;-79
2023/02/01 06:40:08;;;;;;;2.38;1.20;;;;;;;2.86;41.97;92725.34;4974420;28;20054;-79
2023/02/01 06:42:34;;;;;;;2.15;1.27;;;;;;;2.82;42.26;92724.28;4976266;28;20093;-79
2023/02/01 06:44:59;;;;;;;3.15;1.50;;;;;;;2.76;42.44;92725.19;4989855;28;20042;-79
2023/02/01 06:47:25;;;;;;;1.27;1.00;;;;;;;2.78;42.81;92731.69;4955633;28;20046;-78
2023/02/01 06:49:50;;;;;;;1.77;1.00;;;;;;;2.74;43.14;92735.75;4977500;28;20433;-78
2023/02/01 06:52:16;;;;;;;1.75;1.10;;;;;;;2.79;42.45;92737.66;4975723;28;20074;-78
2023/02/01 06:54:42;;;;;;;2.55;1.17;;;;;;;2.85;42.26;92739.31;4959244;28;20046;-78
2023/02/01 06:57:07;;;;;;;2.95;1.30;;;;;;;2.86;42.60;92744.25;4972047;28;20587;-78
2023/02/01 06:59:33;;;;;;;4.10;1.00;;;;;;;2.83;43.03;92739.53;4973494;28;20090;-80
2023/02/01 07:01:58;;;;;;;3.97;1.00;;;;;;;2.81;42.98;92740.78;4972322;28;20043;-78
2023/02/01 07:04:24;;;;;;;0.88;0.85;;;;;;;3.24;42.25;92739.44;4975376;28;20039;-78
2023/02/01 07:06:49;;;;;;;1.10;0.70;;;;;;;4.34;41.00;92732.69;4974117;28;20051;-78
2023/02/01 07:09:15;;;;;;;0.95;0.77;;;;;;;5.26;39.82;92732.06;4985483;28;20097;-78
2023/02/01 07:11:43;;;;;;;1.25;1.00;;;;;;;6.23;38.69;92737.91;4971413;28;20057;-78
2023/02/01 07:14:10;;;;;;;1.83;1.00;;;;;;;7.20;37.21;92733.00;4972765;28;20401;-78
2023/02/01 07:16:36;;;;;;;1.40;0.90;;;;;;;8.09;35.25;92724.91;4971095;28;20039;-78
2023/02/01 07:19:02;;;;;;;1.73;0.90;;;;;;;9.05;33.63;92736.03;4970333;28;20091;-79
2023/02/01 07:21:29;;;;;;;3.88;1.05;;;;;;;9.96;32.11;92736.41;4986767;28;20141;-78
2023/02/01 07:23:55;;;;;;;0.95;0.85;;;;;;;10.48;30.98;92739.34;4975678;28;20093;-79
2023/02/01 07:26:21;;;;;;;2.90;1.08;;;;;;;11.36;30.00;92729.31;4975389;28;20051;-79
2023/02/01 07:28:47;;;;;;;1.88;0.98;;;;;;;11.94;28.81;92737.91;4974011;28;20110;-78
2023/02/01 07:31:15;;;;;;;1.30;0.93;;;;;;;12.50;28.25;92739.56;4974061;28;20074;-78
2023/02/01 07:33:41;;;;;;;1.20;0.85;;;;;;;13.16;27.82;92744.56;4975665;28;20042;-78
2023/02/01 07:36:14;;;;;;;2.00;0.82;;;;;;;13.95;26.04;92737.00;4975604;28;20207;-78
2023/02/01 07:38:39;;;;;;;0.95;0.80;;;;;;;14.40;26.23;92738.03;4975771;28;20050;-78
2023/02/01 07:41:06;;;;;;;1.00;0.85;;;;;;;14.94;25.08;92742.09;4974892;28;20066;-78
2023/02/01 07:43:35;;;;;;;1.38;1.02;;;;;;;15.04;24.96;92741.06;4974383;28;20039;-78
2023/02/01 07:46:02;;;;;;;1.52;0.70;;;;;;;16.06;23.80;92742.50;4976072;28;20051;-78
2023/02/01 07:48:28;;;;;;;1.02;0.75;;;;;;;16.23;23.68;92737.22;4976126;28;20034;-78
2023/02/01 07:51:02;;;;;;;1.92;1.00;;;;;;;17.34;22.70;92734.69;4976589;28;20457;-78
2023/02/01 07:53:29;;;;;;;4.05;1.50;;;;;;;17.94;22.27;92738.78;4959320;28;20045;-78
2023/02/01 07:55:56;;;;;;;3.63;1.40;;;;;;;18.08;21.74;92735.84;4979952;28;20039;-78
2023/02/01 07:58:22;;;;;;;3.47;1.13;;;;;;;18.20;22.01;92743.09;4980244;28;20035;-79
2023/02/01 08:03:32;;;;;;;3.88;1.20;;;;;;;19.36;20.28;92754.34;4981743;28;20545;-79
2023/02/01 08:05:58;;;;;;;2.60;1.13;;;;;;;18.88;21.05;92748.75;4981643;28;20046;-79
2023/02/01 08:08:23;;;;;;;3.42;1.33;;;;;;;19.91;20.19;92760.16;4981682;28;20051;-80
2023/02/01 08:10:49;;;;;;;2.95;1.10;;;;;;;20.11;19.86;92756.53;4979504;28;20050;-82
2023/02/01 08:13:15;;;;;;;2.63;1.02;;;;;;;20.38;19.59;92759.50;4980391;28;20050;-79
2023/02/01 08:15:40;;;;;;;1.85;1.00;;;;;;;20.07;18.84;92760.97;4980179;28;20101;-80
2023/02/01 08:18:06;;;;;;;1.70;0.90;;;;;;;20.07;18.59;92766.28;4979950;28;20039;-80
2023/02/01 08:20:34;;;;;;;1.45;0.93;;;;;;;20.03;18.71;92769.97;4962690;28;20412;-79
2023/02/01 08:22:59;;;;;;;0.80;0.80;;;;;;;20.38;18.11;92756.84;4993158;28;20074;-80
2023/02/01 08:25:25;;;;;;;2.47;0.70;;;;;;;21.36;17.74;92758.84;4980822;28;20054;-80
2023/02/01 08:27:51;;;;;;;1.20;0.80;;;;;;;21.14;17.47;92756.81;4961806;28;20039;-80
2023/02/01 08:30:17;;;;;;;1.77;0.90;;;;;;;21.36;17.32;92745.53;4979963;28;20046;-80
2023/02/01 08:32:43;;;;;;;1.75;1.00;;;;;;;21.73;16.81;92745.22;4979443;28;20031;-80
2023/02/01 08:35:09;;;;;;;2.10;1.10;;;;;;;22.12;16.71;92758.56;4962812;28;20492;-80
2023/02/01 08:37:34;;;;;;;1.83;1.13;;;;;;;22.41;16.68;92757.22;4961699;28;20050;-80
2023/02/01 08:40:00;;;;;;;4.25;2.05;;;;;;;22.01;16.98;92757.56;4961867;28;20050;-80
2023/02/01 08:45:10;;;;;;;1.17;0.77;;;;;;;21.40;16.77;92750.94;4979873;28;20096;-80
2023/02/01 08:47:36;;;;;;;0.77;0.57;;;;;;;21.17;17.20;92764.13;4980569;28;20404;-79
2023/02/01 08:50:01;;;;;;;1.42;0.70;;;;;;;21.96;16.75;92763.97;4995246;28;20055;-79
2023/02/01 08:52:27;;;;;;;4.13;0.60;;;;;;;21.15;17.28;92761.03;4978796;28;20042;-79
2023/02/01 08:54:53;;;;;;;12.63;1.88;;;;;;;20.44;17.15;92755.47;4979947;28;20644;-79
2023/02/01 08:57:18;;;;;;;8.63;1.00;;;;;;;20.78;17.24;92748.78;4961186;28;20042;-79
2023/02/01 08:59:44;;;;;;;1.35;0.68;;;;;;;21.36;17.04;92764.19;4962216;28;20047;-80
2023/02/01 09:02:14;;;;;;;2.72;1.45;;;;;;;21.25;17.05;92763.16;4978174;28;20094;-79
2023/02/01 09:04:41;;;;;;;4.22;1.70;;;;;;;19.43;19.61;92765.22;4978446;28;20110;-79
2023/02/01 09:07:08;;;;;;;4.57;2.25;;;;;;;18.15;20.87;92762.59;4980022;28;20094;-79
2023/02/01 09:09:34;;;;;;;4.13;1.75;;;;;;;17.39;21.36;92763.63;4980159;28;20030;-79
2023/02/01 09:11:59;;;;;;;3.17;1.48;;;;;;;17.06;22.29;92767.69;4961114;28;20464;-79
2023/02/01 09:14:25;;;;;;;6.47;1.77;;;;;;;16.44;22.83;92770.88;4978793;28;20050;-78
2023/02/01 09:16:50;;;;;;;4.22;2.10;;;;;;;16.58;23.10;92778.59;4979429;28;20101;-79
2023/02/01 09:19:16;;;;;;;4.15;1.98;;;;;;;15.75;23.77;92783.06;4980051;28;20050;-79
2023/02/01 09:21:42;;;;;;;4.20;1.90;;;;;;;15.74;24.63;92770.19;4978536;28;20051;-80
2023/02/01 09:24:10;;;;;;;3.40;1.83;;;;;;;15.06;25.46;92781.06;4979068;28;20046;-79
2023/02/01 09:26:36;;;;;;;4.80;1.88;;;;;;;15.02;25.40;92777.50;4979266;28;20050;-79
2023/02/01 09:29:03;;;;;;;3.47;1.80;;;;;;;14.80;25.49;92783.63;4961518;28;20054;-79
2023/02/01 09:31:30;;;;;;;4.53;2.03;;;;;;;14.72;25.50;92774.59;4979043;28;20133;-78
2023/02/01 09:33:56;;;;;;;5.25;1.90;;;;;;;14.34;26.24;92771.59;4979190;28;20043;-78
2023/02/01 09:36:23;;;;;;;4.47;2.10;;;;;;;14.86;25.67;92771.06;4978941;28;20054;-79
2023/02/01 09:38:51;;;;;;;5.97;2.00;;;;;;;14.16;25.91;92778.63;4978489;28;20047;-78
2023/02/01 09:41:34;;;;;;;4.90;1.80;;;;;;;13.97;25.75;92768.28;4977820;28;20066;-79
2023/02/01 09:44:28;;;;;;;5.78;1.98;;;;;;;13.73;26.42;92781.72;4978811;28;20409;-79
2023/02/01 09:46:59;;;;;;;4.60;2.00;;;;;;;13.85;27.95;92770.69;4979052;28;20102;-79
2023/02/01 09:49:30;;;;;;;3.20;1.77;;;;;;;13.73;25.83;92784.34;4978716;28;20046;-79
2023/02/01 09:51:58;;;;;;;4.07;2.03;;;;;;;13.53;26.09;92791.66;4977705;28;20397;-79
2023/02/01 09:54:41;;;;;;;3.47;1.70;;;;;;;13.83;26.89;92796.53;4976500;28;20047;-77
2023/02/01 09:57:24;;;;;;;13.02;2.05;;;;;;;14.02;26.11;92797.09;4990875;28;20170;-79
2023/02/01 09:59:57;;;;;;;3.22;1.77;;;;;;;14.40;25.59;92786.19;4979450;28;20035;-78
2023/02/01 10:02:26;;;;;;;4.47;1.70;;;;;;;14.20;25.72;92795.38;4977719;28;20043;-79
2023/02/01 10:04:57;;;;;;;3.70;1.70;;;;;;;13.92;24.65;92784.19;4977109;28;20378;-78
2023/02/01 10:07:40;;;;;;;3.25;1.70;;;;;;;13.75;25.50;92792.72;4978773;28;20440;-79
2023/02/01 10:10:25;;;;;;;3.33;1.83;;;;;;;13.90;26.02;92805.53;4977247;28;20035;-77
2023/02/01 10:13:02;;;;;;;3.08;1.50;;;;;;;14.15;24.53;92812.06;4978899;28;20137;-79
2023/02/01 10:15:30;;;;;;;4.15;1.90;;;;;;;14.56;24.75;92805.06;4978276;28;20216;-78
2023/02/01 10:17:59;;;;;;;13.88;2.28;;;;;;;14.32;24.63;92806.16;4977673;28;20045;-79
2023/02/01 10:20:43;;;;;;;3.92;1.95;;;;;;;14.06;23.62;92802.56;4978155;28;20468;-78
2023/02/01 10:23:27;;;;;;;2.60;1.50;;;;;;;13.62;23.18;92817.22;4977384;28;20129;-78
2023/02/01 10:26:02;;;;;;;2.90;1.55;;;;;;;13.70;20.82;92811.28;4978186;28;20050;-77
2023/02/01 10:28:28;;;;;;;6.03;1.70;;;;;;;14.16;21.25;92816.28;4978727;28;20473;-79
2023/02/01 10:30:58;;;;;;;3.38;1.40;;;;;;;14.52;20.39;92809.34;4979381;28;20101;-78
2023/02/01 10:33:36;;;;;;;3.63;1.30;;;;;;;14.87;18.94;92814.81;4961773;28;20718;-79
2023/02/01 10:36:19;;;;;;;1.40;1.10;;;;;;;14.99;18.54;92813.16;4977044;28;20047;-79
2023/02/01 10:38:45;;;;;;;2.58;1.38;;;;;;;15.09;17.46;92811.31;4977373;28;20093;-78
2023/02/01 10:41:23;;;;;;;3.25;1.67;;;;;;;15.20;20.57;92807.34;4978088;28;20129;-78
2023/02/01 10:43:57;;;;;;;2.42;1.00;;;;;;;15.33;17.28;92808.28;4977794;28;20057;-79
2023/02/01 10:46:23;;;;;;;2.80;1.50;;;;;;;15.01;20.69;92799.66;4977918;28;20053;-79
2023/02/01 10:48:52;;;;;;;2.28;1.30;;;;;;;15.08;18.14;92789.44;4977442;28;20035;-79
2023/02/01 10:52:07;;;;;;;3.90;1.40;;;;;;;15.30;21.52;92795.72;4977354;28;20081;-79
2023/02/01 10:54:38;;;;;;;4.05;1.80;;;;;;;14.84;21.04;92795.13;4970155;28;20078;-79
2023/02/01 10:57:28;;;;;;;4.10;1.85;;;;;;;14.62;21.70;92803.84;4976841;28;20053;-79
2023/02/01 10:59:53;;;;;;;5.25;2.10;;;;;;;14.53;21.33;92805.63;4978047;28;20201;-79
2023/02/01 11:02:31;;;;;;;2.85;1.50;;;;;;;14.85;19.73;92790.63;4976914;28;20090;-78
2023/02/01 11:05:09;;;;;;;2.80;1.50;;;;;;;14.29;19.32;92783.03;4976928;28;20038;-79
2023/02/01 11:07:36;;;;;;;5.57;1.40;;;;;;;14.46;17.69;92784.22;4978282;28;20468;-78
2023/02/01 11:10:03;;;;;;;3.35;1.40;;;;;;;14.31;20.05;92774.84;4943491;28;20400;-79
2023/02/01 11:12:35;;;;;;;7.55;2.10;;;;;;;13.88;23.27;92772.72;4990883;28;20059;-77
2023/02/01 11:15:11;;;;;;;4.93;2.45;;;;;;;13.38;25.51;92775.41;4977919;28;20042;-79
2023/02/01 11:17:42;;;;;;;4.68;2.20;;;;;;;13.50;25.60;92770.41;4991849;28;20564;-79
2023/02/01 11:20:42;;;;;;;5.13;2.17;;;;;;;13.32;27.04;92772.09;4992747;28;20409;-79
2023/02/01 11:23:21;;;;;;;4.95;2.30;;;;;;;13.18;26.65;92766.06;4977022;28;20081;-79
2023/02/01 11:25:52;;;;;;;5.47;2.38;;;;;;;13.30;26.07;92763.72;4977235;28;20094;-79
2023/02/01 11:28:19;;;;;;;5.90;1.83;;;;;;;13.12;25.02;92755.66;4977364;28;20133;-79
2023/02/01 11:30:47;;;;;;;4.38;2.10;;;;;;;13.24;25.37;92757.00;4977301;28;20049;-78
2023/02/01 11:33:19;;;;;;;4.78;2.10;;;;;;;13.37;24.05;92740.44;4977148;28;20217;-79
2023/02/01 11:35:47;;;;;;;3.77;1.60;;;;;;;13.57;23.41;92748.97;4976420;28;20046;-78
2023/02/01 11:38:29;;;;;;;6.80;2.30;;;;;;;13.70;24.27;92750.75;4978101;28;20282;-78
2023/02/01 11:40:55;;;;;;;4.05;1.80;;;;;;;13.64;25.04;92746.69;4976027;28;20203;-78
2023/02/01 11:43:28;;;;;;;6.05;1.60;;;;;;;13.62;22.52;92748.84;4977437;28;20042;-79
2023/02/01 11:45:59;;;;;;;4.43;1.80;;;;;;;13.69;21.05;92752.63;4975762;28;20053;-78
2023/02/01 11:48:31;;;;;;;4.28;1.98;;;;;;;13.81;21.81;92746.06;4971836;28;20031;-79
2023/02/01 11:51:27;;;;;;;9.35;2.13;;;;;;;14.07;23.43;92756.72;4977127;28;20031;-79
2023/02/01 11:53:53;;;;;;;3.85;2.00;;;;;;;14.28;23.22;92751.75;4974797;28;20039;-79
2023/02/01 11:56:42;;;;;;;5.97;1.52;;;;;;;14.66;22.20;92744.22;4977448;28;20399;-79
2023/02/01 11:59:32;;;;;;;2.90;1.58;;;;;;;14.90;21.13;92741.16;4976232;28;20057;-78
2023/02/01 12:02:09;;;;;;;3.25;1.70;;;;;;;14.64;21.07;92733.19;4976378;28;20405;-79
2023/02/01 12:04:54;;;;;;;4.22;1.90;;;;;;;14.58;21.98;92740.44;4972150;28;20043;-79
2023/02/01 12:07:42;;;;;;;3.88;1.85;;;;;;;14.48;23.26;92745.97;4975813;28;20050;-79
2023/02/01 12:10:37;;;;;;;3.45;1.80;;;;;;;15.01;23.35;92739.03;4992359;28;20177;-78
2023/02/01 12:13:35;;;;;;;4.70;1.42;;;;;;;14.90;20.83;92733.25;4975656;28;20053;-78
2023/02/01 12:16:19;;;;;;;3.33;1.70;;;;;;;15.06;22.54;92735.47;4974145;28;20034;-80
2023/02/01 12:19:11;;;;;;;5.78;2.30;;;;;;;14.92;24.75;92732.97;4975534;28;20127;-80
2023/02/01 12:22:07;;;;;;;6.30;2.20;;;;;;;14.59;23.83;92725.44;4974602;28;20113;-78
2023/02/01 12:25:01;;;;;;;5.22;1.50;;;;;;;14.10;22.87;92721.94;4977386;28;20274;-80
2023/02/01 12:27:54;;;;;;;5.70;1.80;;;;;;;14.71;22.59;92728.25;4976291;28;20039;-79
2023/02/01 12:30:22;;;;;;;;;;;;;;;14.81;22.26;92721.16;4976651;28;20404;-80